createdAt,value
2022-10-29T00:01:01.650Z,11.80
2022-10-29T00:03:29.090Z,11.80
2022-10-29T00:06:02.031Z,11.70
2022-10-29T00:08:30.975Z,11.60
2022-10-29T00:11:11.466Z,11.50
2022-10-29T00:13:39.495Z,11.50
2022-10-29T00:16:16.077Z,11.50
2022-10-29T00:18:44.585Z,11.40
2022-10-29T00:21:20.252Z,11.30
2022-10-29T00:23:48.525Z,11.20
2022-10-29T00:26:17.984Z,11.30
2022-10-29T00:28:46.105Z,11.40
2022-10-29T00:31:15.684Z,11.50
2022-10-29T00:33:43.582Z,11.40
2022-10-29T00:36:19.050Z,11.30
2022-10-29T00:38:46.412Z,11.20
2022-10-29T00:41:18.911Z,11.10
2022-10-29T00:43:52.302Z,11.20
2022-10-29T00:46:35.112Z,11.10
2022-10-29T00:49:03.079Z,11.10
2022-10-29T00:51:32.195Z,11.20
2022-10-29T00:54:09.910Z,11.50
2022-10-29T00:56:43.106Z,11.60
2022-10-29T00:59:10.490Z,11.80
2022-10-29T01:01:39.151Z,11.70
2022-10-29T01:04:07.057Z,11.50
2022-10-29T01:06:34.822Z,11.70
2022-10-29T01:09:02.179Z,11.70
2022-10-29T01:11:29.468Z,11.60
2022-10-29T01:14:36.689Z,11.60
2022-10-29T01:17:23.378Z,11.40
2022-10-29T01:20:44.514Z,11.50
2022-10-29T01:23:21.474Z,11.70
2022-10-29T01:26:41.190Z,11.60
2022-10-29T01:29:29.460Z,11.40
2022-10-29T01:31:59.802Z,11.10
2022-10-29T01:34:36.225Z,11.10
2022-10-29T01:37:19.493Z,11.00
2022-10-29T01:40:25.149Z,11.30
2022-10-29T01:43:13.604Z,11.40
2022-10-29T01:46:07.525Z,11.30
2022-10-29T01:48:39.750Z,11.20
2022-10-29T01:51:13.796Z,11.00
2022-10-29T01:53:42.494Z,10.90
2022-10-29T01:56:09.933Z,10.90
2022-10-29T01:58:37.972Z,10.80
2022-10-29T02:01:38.329Z,10.90
2022-10-29T02:04:23.830Z,11.00
2022-10-29T02:07:16.944Z,11.10
2022-10-29T02:10:03.406Z,10.90
2022-10-29T02:12:38.721Z,10.80
2022-10-29T02:15:18.522Z,10.90
2022-10-29T02:17:46.277Z,10.90
2022-10-29T02:20:15.498Z,10.90
2022-10-29T02:22:43.297Z,10.90
2022-10-29T02:25:11.434Z,11.00
2022-10-29T02:27:38.851Z,10.90
2022-10-29T02:30:06.904Z,10.80
2022-10-29T02:32:34.398Z,10.80
2022-10-29T02:35:02.011Z,10.80
2022-10-29T02:37:29.592Z,10.90
2022-10-29T02:39:57.125Z,10.90
2022-10-29T02:42:25.077Z,10.90
2022-10-29T02:44:52.491Z,10.80
2022-10-29T02:47:19.978Z,10.70
2022-10-29T02:49:47.399Z,10.80
2022-10-29T02:52:14.762Z,10.70
2022-10-29T02:54:42.951Z,10.90
2022-10-29T02:57:10.478Z,11.00
2022-10-29T02:59:37.966Z,11.20
2022-10-29T03:02:05.465Z,11.20
2022-10-29T03:04:33.135Z,11.20
2022-10-29T03:07:02.022Z,11.30
2022-10-29T03:09:29.429Z,11.00
2022-10-29T03:11:56.771Z,10.80
2022-10-29T03:14:24.122Z,10.90
2022-10-29T03:16:51.528Z,10.80
2022-10-29T03:19:18.921Z,10.70
2022-10-29T03:21:46.290Z,10.70
2022-10-29T03:24:13.653Z,10.60
2022-10-29T03:26:41.027Z,10.60
2022-10-29T03:29:08.394Z,10.60
2022-10-29T03:31:35.739Z,10.60
2022-10-29T03:34:03.146Z,10.60
2022-10-29T03:36:30.536Z,10.50
2022-10-29T03:38:57.926Z,10.70
2022-10-29T03:41:25.471Z,10.60
2022-10-29T03:43:52.979Z,10.80
2022-10-29T03:46:20.375Z,10.80
2022-10-29T03:48:50.203Z,10.70
2022-10-29T03:51:17.658Z,10.50
2022-10-29T03:53:45.212Z,10.40
2022-10-29T03:56:12.626Z,10.30
2022-10-29T03:58:40.129Z,10.30
2022-10-29T04:01:09.563Z,10.40
2022-10-29T04:03:38.625Z,10.50
2022-10-29T04:06:11.702Z,10.80
2022-10-29T04:08:39.272Z,10.70
2022-10-29T04:11:08.177Z,10.50
2022-10-29T04:13:35.566Z,10.40
2022-10-29T04:16:03.025Z,10.40
2022-10-29T04:18:30.530Z,10.30
2022-10-29T04:29:26.208Z,10.30
2022-10-29T04:31:53.642Z,10.90
2022-10-29T04:34:21.009Z,11.00
2022-10-29T04:36:48.439Z,10.90
2022-10-29T04:39:18.355Z,10.80
2022-10-29T04:41:51.907Z,10.60
2022-10-29T04:44:20.120Z,10.50
2022-10-29T04:46:47.911Z,10.40
2022-10-29T04:49:15.393Z,10.30
2022-10-29T04:51:42.857Z,10.20
2022-10-29T04:54:10.416Z,10.30
2022-10-29T04:56:37.782Z,10.70
2022-10-29T04:59:05.153Z,10.70
2022-10-29T05:01:32.825Z,10.70
2022-10-29T05:04:00.518Z,10.50
2022-10-29T05:06:27.925Z,10.40
2022-10-29T05:08:55.269Z,10.20
2022-10-29T05:11:22.700Z,10.10
2022-10-29T05:13:50.089Z,10.10
2022-10-29T05:16:17.562Z,10.10
2022-10-29T05:18:44.969Z,10.00
2022-10-29T05:21:12.445Z,10.20
2022-10-29T05:23:39.879Z,10.20
2022-10-29T05:26:07.223Z,10.50
2022-10-29T05:28:34.710Z,10.60
2022-10-29T05:31:04.893Z,10.50
2022-10-29T05:33:32.321Z,10.30
2022-10-29T05:36:01.302Z,10.30
2022-10-29T05:38:28.709Z,10.30
2022-10-29T05:40:58.675Z,10.50
2022-10-29T05:43:26.103Z,10.50
2022-10-29T05:45:53.598Z,10.50
2022-10-29T05:48:20.927Z,10.50
2022-10-29T05:50:48.326Z,10.50
2022-10-29T05:53:15.854Z,10.50
2022-10-29T05:55:43.245Z,10.40
2022-10-29T05:58:13.205Z,10.30
2022-10-29T06:00:43.043Z,10.20
2022-10-29T06:03:19.622Z,10.10
2022-10-29T06:05:48.262Z,10.20
2022-10-29T06:08:15.832Z,10.30
2022-10-29T06:10:43.349Z,10.40
2022-10-29T06:13:12.675Z,10.20
2022-10-29T06:15:40.366Z,10.20
2022-10-29T06:18:07.822Z,10.20
2022-10-29T06:20:35.780Z,10.20
2022-10-29T06:23:03.140Z,10.30
2022-10-29T06:25:30.872Z,10.30
2022-10-29T06:28:04.140Z,10.30
2022-10-29T06:30:32.733Z,10.60
2022-10-29T06:33:00.836Z,10.70
2022-10-29T06:35:28.789Z,10.80
2022-10-29T06:37:56.647Z,10.80
2022-10-29T06:40:24.466Z,10.90
2022-10-29T06:42:59.786Z,11.00
2022-10-29T06:45:28.399Z,11.10
2022-10-29T06:47:56.273Z,11.20
2022-10-29T06:50:24.108Z,11.30
2022-10-29T06:53:00.142Z,11.40
2022-10-29T06:55:28.474Z,11.50
2022-10-29T06:58:01.558Z,11.80
2022-10-29T07:00:30.078Z,12.40
2022-10-29T07:02:58.334Z,12.80
2022-10-29T07:05:26.617Z,13.00
2022-10-29T07:07:58.630Z,13.10
2022-10-29T07:10:27.385Z,13.50
2022-10-29T07:12:55.129Z,13.80
2022-10-29T07:15:25.778Z,14.00
2022-10-29T07:18:06.685Z,14.20
2022-10-29T07:20:39.819Z,14.40
2022-10-29T07:23:07.954Z,14.50
2022-10-29T07:25:36.402Z,14.60
2022-10-29T07:28:17.221Z,14.90
2022-10-29T07:30:45.297Z,15.00
2022-10-29T07:33:12.929Z,14.90
2022-10-29T07:35:40.691Z,14.80
2022-10-29T07:38:11.076Z,14.80
2022-10-29T07:40:47.942Z,14.80
2022-10-29T07:43:16.400Z,14.80
2022-10-29T07:45:46.149Z,14.90
2022-10-29T07:48:13.501Z,14.90
2022-10-29T07:50:40.854Z,15.00
2022-10-29T07:53:08.794Z,15.00
2022-10-29T07:55:36.603Z,15.10
2022-10-29T07:58:09.900Z,15.10
2022-10-29T08:00:40.495Z,15.10
2022-10-29T08:03:10.165Z,15.30
2022-10-29T08:05:37.548Z,15.30
2022-10-29T08:08:05.729Z,15.30
2022-10-29T08:10:34.851Z,15.50
2022-10-29T08:13:04.144Z,15.50
2022-10-29T08:15:32.978Z,15.60
2022-10-29T08:18:00.747Z,15.60
2022-10-29T08:20:29.094Z,15.70
2022-10-29T08:22:59.996Z,15.70
2022-10-29T08:25:27.978Z,15.90
2022-10-29T08:28:03.452Z,15.90
2022-10-29T08:30:32.029Z,16.00
2022-10-29T08:33:00.143Z,16.00
2022-10-29T08:35:28.839Z,16.10
2022-10-29T08:37:56.597Z,16.30
2022-10-29T08:40:41.954Z,16.30
2022-10-29T08:43:30.227Z,16.30
2022-10-29T08:45:57.857Z,16.40
2022-10-29T08:48:33.278Z,16.50
2022-10-29T08:51:08.610Z,16.60
2022-10-29T08:53:54.139Z,16.60
2022-10-29T08:56:39.148Z,16.70
2022-10-29T08:59:17.354Z,17.10
2022-10-29T09:01:45.148Z,17.20
2022-10-29T09:04:26.076Z,17.30
2022-10-29T09:07:17.659Z,17.50
2022-10-29T09:09:59.038Z,17.80
2022-10-29T09:12:41.364Z,17.70
2022-10-29T09:15:45.797Z,17.70
2022-10-29T09:18:13.158Z,17.90
2022-10-29T09:21:04.297Z,18.10
2022-10-29T09:24:01.769Z,18.30
2022-10-29T09:26:37.273Z,18.40
2022-10-29T09:29:38.225Z,18.60
2022-10-29T09:32:12.955Z,18.70
2022-10-29T09:34:51.476Z,18.60
2022-10-29T09:37:42.214Z,18.50
2022-10-29T09:40:32.822Z,18.40
2022-10-29T09:43:27.064Z,18.40
2022-10-29T09:46:30.891Z,18.40
2022-10-29T09:48:58.222Z,18.40
2022-10-29T09:51:38.203Z,18.40
2022-10-29T09:54:06.157Z,18.40
2022-10-29T09:56:33.707Z,18.50
2022-10-29T09:59:29.070Z,18.80
2022-10-29T10:01:58.991Z,18.90
2022-10-29T10:04:41.558Z,19.10
2022-10-29T10:07:10.373Z,18.90
2022-10-29T10:09:54.214Z,18.80
2022-10-29T10:12:25.754Z,18.80
2022-10-29T10:15:19.563Z,19.00
2022-10-29T10:18:07.131Z,19.10
2022-10-29T10:20:41.601Z,19.50
2022-10-29T10:23:41.279Z,19.60
2022-10-29T10:26:43.297Z,19.80
2022-10-29T10:29:16.630Z,19.90
2022-10-29T10:31:51.069Z,19.70
2022-10-29T10:34:21.720Z,19.60
2022-10-29T10:36:55.777Z,19.60
2022-10-29T10:39:26.019Z,19.50
2022-10-29T10:41:55.110Z,19.40
2022-10-29T10:44:23.312Z,19.40
2022-10-29T10:46:54.447Z,19.50
2022-10-29T10:49:39.501Z,19.50
2022-10-29T10:52:28.190Z,19.70
2022-10-29T10:55:16.380Z,19.70
2022-10-29T10:57:54.008Z,19.70
2022-10-29T11:00:22.803Z,20.00
2022-10-29T11:02:59.987Z,19.90
2022-10-29T11:05:40.216Z,19.90
2022-10-29T11:08:20.775Z,20.00
2022-10-29T11:10:53.139Z,20.10
2022-10-29T11:13:28.203Z,20.00
2022-10-29T11:16:12.070Z,20.20
2022-10-29T11:18:59.126Z,20.30
2022-10-29T11:21:38.167Z,20.40
2022-10-29T11:24:09.213Z,20.50
2022-10-29T11:26:51.518Z,20.50
2022-10-29T11:29:48.988Z,20.60
2022-10-29T11:32:45.293Z,20.60
2022-10-29T11:35:16.150Z,20.50
2022-10-29T11:38:33.123Z,20.50
2022-10-29T11:41:31.457Z,20.50
2022-10-29T11:43:59.003Z,20.30
2022-10-29T11:46:37.383Z,20.40
2022-10-29T11:49:17.486Z,20.50
2022-10-29T11:52:09.305Z,20.60
2022-10-29T11:55:08.410Z,20.60
2022-10-29T11:57:38.818Z,20.70
2022-10-29T12:00:16.783Z,20.80
2022-10-29T12:02:58.352Z,21.00
2022-10-29T12:05:30.997Z,21.10
2022-10-29T12:07:58.481Z,21.20
2022-10-29T12:10:48.890Z,21.20
2022-10-29T12:13:48.950Z,21.50
2022-10-29T12:16:36.270Z,21.40
2022-10-29T12:19:35.621Z,21.40
2022-10-29T12:22:21.482Z,21.30
2022-10-29T12:25:03.984Z,21.70
2022-10-29T12:28:19.206Z,21.80
2022-10-29T12:31:03.209Z,21.80
2022-10-29T12:33:51.817Z,21.90
2022-10-29T12:36:41.368Z,21.80
2022-10-29T12:39:52.974Z,22.00
2022-10-29T12:42:26.502Z,22.00
2022-10-29T12:45:23.371Z,21.90
2022-10-29T12:47:55.473Z,22.20
2022-10-29T12:50:35.219Z,22.30
2022-10-29T12:53:17.643Z,22.30
2022-10-29T12:55:46.799Z,22.50
2022-10-29T12:58:52.786Z,22.60
2022-10-29T13:01:38.176Z,22.40
2022-10-29T13:04:30.200Z,22.40
2022-10-29T13:07:00.645Z,22.30
2022-10-29T13:09:37.920Z,22.40
2022-10-29T13:12:10.876Z,22.60
2022-10-29T13:14:49.537Z,22.80
2022-10-29T13:17:25.894Z,22.90
2022-10-29T13:20:25.314Z,22.80
2022-10-29T13:22:54.553Z,22.80
2022-10-29T13:25:36.192Z,22.80
2022-10-29T13:28:09.730Z,22.90
2022-10-29T13:30:44.778Z,23.00
2022-10-29T13:33:27.258Z,22.90
2022-10-29T13:36:00.359Z,23.10
2022-10-29T13:39:07.322Z,23.10
2022-10-29T13:41:43.971Z,22.90
2022-10-29T13:44:17.645Z,22.90
2022-10-29T13:47:01.838Z,23.20
2022-10-29T13:49:42.326Z,23.20
2022-10-29T13:52:09.639Z,23.10
2022-10-29T13:55:00.063Z,23.20
2022-10-29T13:57:50.723Z,23.20
2022-10-29T14:00:20.711Z,23.20
2022-10-29T14:02:53.655Z,23.30
2022-10-29T14:05:31.868Z,23.10
2022-10-29T14:08:52.018Z,23.10
2022-10-29T14:11:33.481Z,23.40
2022-10-29T14:14:04.507Z,23.40
2022-10-29T14:16:33.532Z,23.40
2022-10-29T14:19:18.583Z,23.40
2022-10-29T14:21:45.989Z,23.40
2022-10-29T14:24:16.441Z,23.40
2022-10-29T14:26:45.396Z,23.30
2022-10-29T14:29:21.176Z,23.30
2022-10-29T14:32:08.030Z,23.20
2022-10-29T14:34:35.487Z,23.30
2022-10-29T14:37:07.517Z,23.30
2022-10-29T14:39:57.903Z,23.10
2022-10-29T14:42:40.426Z,23.20
2022-10-29T14:45:24.919Z,23.20
2022-10-29T14:48:09.504Z,23.20
2022-10-29T14:50:37.196Z,23.20
2022-10-29T14:53:08.797Z,23.20
2022-10-29T14:55:45.262Z,23.20
2022-10-29T14:58:22.481Z,23.20
2022-10-29T15:01:14.603Z,23.20
2022-10-29T15:03:42.290Z,23.00
2022-10-29T15:06:30.118Z,23.00
2022-10-29T15:09:04.081Z,22.90
2022-10-29T15:11:40.845Z,22.90
2022-10-29T15:14:36.562Z,22.90
2022-10-29T15:17:10.567Z,22.80
2022-10-29T15:19:43.340Z,22.60
2022-10-29T15:22:17.864Z,22.60
2022-10-29T15:24:48.473Z,22.40
2022-10-29T15:27:16.176Z,22.20
2022-10-29T15:29:46.733Z,22.00
2022-10-29T15:32:16.959Z,22.00
2022-10-29T15:34:53.552Z,21.90
2022-10-29T15:37:39.021Z,21.90
2022-10-29T15:40:17.055Z,21.90
2022-10-29T15:42:47.777Z,21.80
2022-10-29T15:45:18.466Z,21.90
2022-10-29T15:47:55.111Z,21.80
2022-10-29T15:50:26.011Z,21.50
2022-10-29T15:53:05.663Z,21.50
2022-10-29T15:55:35.590Z,21.20
2022-10-29T15:58:11.374Z,20.70
2022-10-29T16:00:39.215Z,20.30
2022-10-29T16:03:39.345Z,19.80
2022-10-29T16:06:08.432Z,19.40
2022-10-29T16:08:49.972Z,19.20
2022-10-29T16:11:22.445Z,18.90
2022-10-29T16:13:55.292Z,18.70
2022-10-29T16:16:25.116Z,18.50
2022-10-29T16:18:53.391Z,18.40
2022-10-29T16:21:25.736Z,18.40
2022-10-29T16:23:53.101Z,18.30
2022-10-29T16:26:22.675Z,18.10
2022-10-29T16:28:52.553Z,17.90
2022-10-29T16:31:23.232Z,17.70
2022-10-29T16:33:53.227Z,17.50
2022-10-29T16:36:20.872Z,17.30
2022-10-29T16:38:48.289Z,17.10
2022-10-29T16:41:18.203Z,17.00
2022-10-29T16:43:46.353Z,16.90
2022-10-29T16:46:14.888Z,16.80
2022-10-29T16:48:42.410Z,16.70
2022-10-29T16:51:09.922Z,16.60
2022-10-29T16:53:37.277Z,16.60
2022-10-29T16:56:05.059Z,16.50
2022-10-29T16:58:32.439Z,16.50
2022-10-29T17:01:07.502Z,16.40
2022-10-29T17:03:35.562Z,16.40
2022-10-29T17:06:08.552Z,16.30
2022-10-29T17:08:36.983Z,16.30
2022-10-29T17:11:06.373Z,16.40
2022-10-29T17:13:34.828Z,16.60
2022-10-29T17:16:10.708Z,17.00
2022-10-29T17:18:38.101Z,16.50
2022-10-29T17:21:05.775Z,16.30
2022-10-29T17:23:34.128Z,16.20
2022-10-29T17:26:01.733Z,16.20
2022-10-29T17:28:29.491Z,16.00
2022-10-29T17:30:56.847Z,15.80
2022-10-29T17:33:24.248Z,15.80
2022-10-29T17:36:02.806Z,15.70
2022-10-29T17:38:30.378Z,15.60
2022-10-29T17:40:57.815Z,15.50
2022-10-29T17:43:25.315Z,15.60
2022-10-29T17:45:52.674Z,15.60
2022-10-29T17:48:24.001Z,15.50
2022-10-29T17:51:00.239Z,15.40
2022-10-29T17:53:30.128Z,15.30
2022-10-29T17:55:59.386Z,15.30
2022-10-29T17:58:27.193Z,15.60
2022-10-29T18:00:54.861Z,15.50
2022-10-29T18:03:25.694Z,15.30
2022-10-29T18:05:53.081Z,15.20
2022-10-29T18:08:20.546Z,15.10
2022-10-29T18:10:47.893Z,15.00
2022-10-29T18:13:15.204Z,15.00
2022-10-29T18:15:42.534Z,14.90
2022-10-29T18:18:09.914Z,15.00
2022-10-29T18:20:37.331Z,14.80
2022-10-29T18:23:04.643Z,14.80
2022-10-29T18:25:32.041Z,14.70
2022-10-29T18:27:59.354Z,14.80
2022-10-29T18:30:26.682Z,14.80
2022-10-29T18:32:54.168Z,14.80
2022-10-29T18:35:21.718Z,14.70
2022-10-29T18:37:49.057Z,14.60
2022-10-29T18:40:16.423Z,14.50
2022-10-29T18:42:43.901Z,14.50
2022-10-29T18:45:11.741Z,14.60
2022-10-29T18:47:39.173Z,14.60
2022-10-29T18:50:06.888Z,14.70
2022-10-29T18:52:34.222Z,15.10
2022-10-29T18:55:01.627Z,15.40
2022-10-29T18:57:29.053Z,15.70
2022-10-29T18:59:56.429Z,16.20
2022-10-29T19:02:23.915Z,16.10
2022-10-29T19:04:51.526Z,15.60
2022-10-29T19:07:19.064Z,15.20
2022-10-29T19:09:47.554Z,14.90
2022-10-29T19:12:15.065Z,14.60
2022-10-29T19:14:42.430Z,14.40
2022-10-29T19:17:09.803Z,14.40
2022-10-29T19:19:37.206Z,14.30
2022-10-29T19:22:04.551Z,14.20
2022-10-29T19:24:31.985Z,14.20
2022-10-29T19:26:59.294Z,14.20
2022-10-29T19:29:26.759Z,14.00
2022-10-29T19:31:54.107Z,13.90
2022-10-29T19:34:21.532Z,14.00
2022-10-29T19:36:48.900Z,13.90
2022-10-29T19:39:16.242Z,13.90
2022-10-29T19:41:43.643Z,13.80
2022-10-29T19:44:11.002Z,13.70
2022-10-29T19:46:38.392Z,13.80
2022-10-29T19:49:05.802Z,13.80
2022-10-29T19:51:33.223Z,13.80
2022-10-29T19:54:02.362Z,13.70
2022-10-29T19:56:29.746Z,13.70
2022-10-29T19:58:57.159Z,13.70
2022-10-29T20:01:24.656Z,13.80
2022-10-29T20:03:52.109Z,13.80
2022-10-29T20:06:19.628Z,13.70
2022-10-29T20:08:47.059Z,13.60
2022-10-29T20:11:14.524Z,13.60
2022-10-29T20:13:42.247Z,13.60
2022-10-29T20:16:16.710Z,13.60
2022-10-29T20:18:44.676Z,13.60
2022-10-29T20:21:12.648Z,13.50
2022-10-29T20:23:40.968Z,13.50
2022-10-29T20:26:08.773Z,13.50
2022-10-29T20:28:36.246Z,13.70
2022-10-29T20:31:17.800Z,13.70
2022-10-29T20:33:52.763Z,13.60
2022-10-29T20:36:20.997Z,13.50
2022-10-29T20:38:49.752Z,13.50
2022-10-29T20:41:17.914Z,13.40
2022-10-29T20:43:45.882Z,13.30
2022-10-29T20:46:13.272Z,13.40
2022-10-29T20:48:40.633Z,13.60
2022-10-29T20:51:08.097Z,14.00
2022-10-29T20:53:35.418Z,13.90
2022-10-29T20:56:02.802Z,13.90
2022-10-29T20:58:30.237Z,13.80
2022-10-29T21:01:19.016Z,13.60
2022-10-29T21:03:48.797Z,13.50
2022-10-29T21:06:17.548Z,13.30
2022-10-29T21:08:46.472Z,13.30
2022-10-29T21:11:15.590Z,13.20
2022-10-29T21:13:43.292Z,13.10
2022-10-29T21:16:16.115Z,13.10
2022-10-29T21:18:45.583Z,13.00
2022-10-29T21:21:13.416Z,13.00
2022-10-29T21:23:41.177Z,13.00
2022-10-29T21:26:12.573Z,12.90
2022-10-29T21:28:40.093Z,13.00
2022-10-29T21:31:07.605Z,12.90
2022-10-29T21:33:35.248Z,12.90
2022-10-29T21:36:02.601Z,12.80
2022-10-29T21:38:31.021Z,12.80
2022-10-29T21:40:58.913Z,12.80
2022-10-29T21:43:26.499Z,12.80
2022-10-29T21:45:53.919Z,12.70
2022-10-29T21:48:21.669Z,12.70
2022-10-29T21:50:49.031Z,12.70
2022-10-29T21:55:48.503Z,12.70
2022-10-29T21:58:15.766Z,12.60
2022-10-29T22:00:43.087Z,12.60
2022-10-29T22:03:10.454Z,12.60
2022-10-29T22:05:37.787Z,12.60
2022-10-29T22:08:05.290Z,12.60
2022-10-29T22:10:32.704Z,12.60
2022-10-29T22:13:00.492Z,12.70
2022-10-29T22:15:28.206Z,12.60
2022-10-29T22:17:55.559Z,12.60
2022-10-29T22:20:22.921Z,12.50
2022-10-29T22:22:50.298Z,12.50
2022-10-29T22:25:17.649Z,12.40
2022-10-29T22:27:44.997Z,12.50
2022-10-29T22:30:12.593Z,12.60
2022-10-29T22:32:41.975Z,12.50
2022-10-29T22:35:09.471Z,12.50
2022-10-29T22:37:36.802Z,12.40
2022-10-29T22:40:04.489Z,12.40
2022-10-29T22:42:31.847Z,12.30
2022-10-29T22:44:59.221Z,12.30
2022-10-29T22:47:26.598Z,12.20
2022-10-29T22:49:56.524Z,12.20
2022-10-29T22:52:23.870Z,12.20
2022-10-29T22:54:51.516Z,12.10
2022-10-29T22:57:18.832Z,12.10
2022-10-29T22:59:46.171Z,12.10
2022-10-29T23:02:13.584Z,12.10
2022-10-29T23:04:40.933Z,12.10
2022-10-29T23:07:08.312Z,12.10
2022-10-29T23:09:35.687Z,12.10
2022-10-29T23:12:03.125Z,12.10
2022-10-29T23:14:30.442Z,12.00
2022-10-29T23:16:57.759Z,11.90
2022-10-29T23:19:25.070Z,12.00
2022-10-29T23:21:52.444Z,12.00
2022-10-29T23:24:19.845Z,12.00
2022-10-29T23:26:47.256Z,11.90
2022-10-29T23:29:14.598Z,11.80
2022-10-29T23:31:41.967Z,11.80
2022-10-29T23:34:12.080Z,11.90
2022-10-29T23:36:39.540Z,11.90
2022-10-29T23:39:07.022Z,11.80
2022-10-29T23:41:34.434Z,11.80
2022-10-29T23:44:01.836Z,11.80
2022-10-29T23:46:29.232Z,11.70
2022-10-29T23:48:56.706Z,11.80
2022-10-29T23:51:24.118Z,12.00
2022-10-29T23:53:54.760Z,12.20
2022-10-29T23:56:25.238Z,12.00
2022-10-29T23:58:52.713Z,11.90
